createdAt,value
2023-04-27T00:00:58.917Z,3.4
2023-04-27T00:03:00.201Z,3.3
2023-04-27T00:21:40.935Z,3
2023-04-27T00:23:42.121Z,2.9
2023-04-27T00:25:46.513Z,2.8
2023-04-27T00:27:47.655Z,2.8
2023-04-27T00:29:48.801Z,2.8
2023-04-27T00:31:49.990Z,2.8
2023-04-27T00:33:51.114Z,2.8
2023-04-27T00:35:52.274Z,2.8
2023-04-27T00:37:53.405Z,2.7
2023-04-27T00:44:00.161Z,2.8
2023-04-27T00:46:01.284Z,2.7
2023-04-27T00:50:03.547Z,2.8
2023-04-27T00:59:13.840Z,2.6
2023-04-27T01:01:14.764Z,2.5
2023-04-27T01:03:15.990Z,2.5
2023-04-27T01:05:16.964Z,2.4
2023-04-27T01:07:21.380Z,2.3
2023-04-27T01:09:22.501Z,2.3
2023-04-27T01:11:23.681Z,2.3
2023-04-27T01:13:24.791Z,2.3
2023-04-27T01:15:25.921Z,2.2
2023-04-27T01:17:27.090Z,2.1
2023-04-27T01:23:33.735Z,1.9
2023-04-27T01:29:37.118Z,1.6
2023-04-27T01:39:46.041Z,1.5
2023-04-27T01:43:48.294Z,1.5
2023-04-27T01:45:49.428Z,1.5
2023-04-27T01:49:54.940Z,1.5
2023-04-27T01:53:57.156Z,1.5
2023-04-27T01:54:59.355Z,1.5
2023-04-27T01:57:00.479Z,1.5
2023-04-27T01:59:01.585Z,1.6
2023-04-27T02:01:02.723Z,1.6
2023-04-27T02:05:08.181Z,1.7
2023-04-27T02:07:09.313Z,1.7
2023-04-27T02:09:10.411Z,1.7
2023-04-27T02:11:11.541Z,1.7
2023-04-27T02:13:12.649Z,1.7
2023-04-27T02:15:13.774Z,1.7
2023-04-27T02:17:18.164Z,1.7
2023-04-27T02:19:19.262Z,1.8
2023-04-27T02:21:20.395Z,1.8
2023-04-27T02:23:21.459Z,1.7
2023-04-27T02:27:23.692Z,1.8
2023-04-27T02:29:24.804Z,1.8
2023-04-27T02:31:29.212Z,1.7
2023-04-27T02:33:30.301Z,1.7
2023-04-27T02:35:31.433Z,1.6
2023-04-27T02:37:32.523Z,1.5
2023-04-27T02:39:33.638Z,1.5
2023-04-27T02:43:35.835Z,1.4
2023-04-27T02:45:40.225Z,1.4
2023-04-27T02:47:41.400Z,1.5
2023-04-27T02:49:42.453Z,1.4
2023-04-27T02:50:44.667Z,1.4
2023-04-27T02:54:46.869Z,1.5
2023-04-27T03:04:55.665Z,1.5
2023-04-27T03:06:56.754Z,1.6
2023-04-27T03:08:57.821Z,1.5
2023-04-27T03:10:58.941Z,1.5
2023-04-27T03:13:03.295Z,1.4
2023-04-27T03:15:04.391Z,1.5
2023-04-27T03:19:06.958Z,1.5
2023-04-27T03:21:08.029Z,1.5
2023-04-27T03:29:15.887Z,1.3
2023-04-27T03:31:16.882Z,1.2
2023-04-27T03:33:17.958Z,1.1
2023-04-27T03:37:20.251Z,1.1
2023-04-27T03:39:21.279Z,1.1
2023-04-27T03:41:25.653Z,1
2023-04-27T03:45:27.844Z,1
2023-04-27T03:49:51.658Z,1
2023-04-27T03:51:52.744Z,0.9
2023-04-27T03:53:57.111Z,0.9
2023-04-27T03:55:58.214Z,0.9
2023-04-27T03:57:59.314Z,0.9
2023-04-27T04:00:00.459Z,0.9
2023-04-27T04:02:01.730Z,0.9
2023-04-27T04:04:02.728Z,0.9
2023-04-27T04:08:08.110Z,0.8
2023-04-27T04:10:09.207Z,0.9
2023-04-27T04:12:10.330Z,0.9
2023-04-27T04:14:11.389Z,0.8
2023-04-27T04:16:12.521Z,0.8
2023-04-27T04:20:14.688Z,0.7
2023-04-27T04:22:19.021Z,0.7
2023-04-27T04:24:20.110Z,0.7
2023-04-27T04:26:21.216Z,0.6
2023-04-27T04:28:22.318Z,0.7
2023-04-27T04:30:23.409Z,0.7
2023-04-27T04:41:34.289Z,0.9
2023-04-27T04:43:35.385Z,0.9
2023-04-27T04:45:36.462Z,1
2023-04-27T04:47:37.589Z,1
2023-04-27T04:49:41.923Z,1
2023-04-27T04:51:42.997Z,1
2023-04-27T04:53:44.107Z,1.1
2023-04-27T04:55:45.187Z,1.1
2023-04-27T04:57:46.288Z,1.2
2023-04-27T04:59:47.375Z,1.2
2023-04-27T05:01:48.522Z,1.2
2023-04-27T05:03:52.935Z,1.3
2023-04-27T05:05:53.936Z,1.4
2023-04-27T05:07:55.032Z,1.5
2023-04-27T05:09:56.121Z,1.6
2023-04-27T05:13:58.269Z,1.7
2023-04-27T05:15:59.410Z,1.8
2023-04-27T05:18:03.753Z,1.9
2023-04-27T05:24:07.033Z,2.1
2023-04-27T05:28:09.243Z,2.3
2023-04-27T05:30:10.370Z,2.4
2023-04-27T05:32:14.687Z,2.4
2023-04-27T05:37:19.101Z,2.6
2023-04-27T05:39:20.212Z,2.7
2023-04-27T05:41:21.332Z,2.8
2023-04-27T05:43:22.448Z,2.9
2023-04-27T05:45:26.832Z,3
2023-04-27T05:47:28.008Z,3
2023-04-27T05:49:30.643Z,3.1
2023-04-27T05:51:31.690Z,3.1
2023-04-27T05:53:32.833Z,3.2
2023-04-27T05:55:33.949Z,3.3
2023-04-27T05:57:35.109Z,3.3
2023-04-27T05:59:39.490Z,3.4
2023-04-27T06:03:41.860Z,3.6
2023-04-27T06:07:44.045Z,3.8
2023-04-27T06:09:45.196Z,3.8
2023-04-27T06:11:46.333Z,3.8
2023-04-27T06:21:55.334Z,4.4
2023-04-27T06:23:56.495Z,4.5
2023-04-27T06:25:57.595Z,4.5
2023-04-27T06:28:02.050Z,4.7
2023-04-27T06:30:03.204Z,4.8
2023-04-27T06:32:04.368Z,4.9
2023-04-27T06:33:06.634Z,5.1
2023-04-27T06:37:08.851Z,5.2
2023-04-27T06:39:10.071Z,5.3
2023-04-27T06:41:14.486Z,5.5
2023-04-27T06:43:15.645Z,5.5
2023-04-27T06:45:16.821Z,5.5
2023-04-27T06:47:18.002Z,5.7
2023-04-27T06:49:19.177Z,5.8
2023-04-27T06:51:20.356Z,6
2023-04-27T06:53:21.578Z,6.1
2023-04-27T06:59:28.406Z,6.1
2023-04-27T07:01:29.819Z,6.3
2023-04-27T07:03:30.828Z,6.4
2023-04-27T07:05:31.896Z,6.6
2023-04-27T07:07:33.091Z,6.7
2023-04-27T07:09:37.536Z,6.8
2023-04-27T07:11:38.706Z,6.9
2023-04-27T07:30:19.943Z,7.4
2023-04-27T07:36:26.796Z,7.5
2023-04-27T07:40:29.182Z,7.5
2023-04-27T07:44:31.777Z,7.7
2023-04-27T07:50:38.656Z,8.4
2023-04-27T07:52:39.864Z,8.4
2023-04-27T07:54:41.101Z,8.5
2023-04-27T07:56:42.351Z,9.1
2023-04-27T08:00:44.732Z,10.1
2023-04-27T08:02:46.208Z,10.2
2023-04-27T08:04:50.984Z,10.7
2023-04-27T08:06:52.220Z,10.5
2023-04-27T08:12:55.353Z,10
2023-04-27T08:14:56.556Z,9.8
2023-04-27T08:16:57.949Z,9.9
2023-04-27T08:19:02.269Z,10.2
2023-04-27T08:21:03.496Z,10.6
2023-04-27T08:24:06.995Z,10.8
2023-04-27T08:32:15.190Z,11
2023-04-27T08:36:17.673Z,11.4
2023-04-27T08:42:21.359Z,11.2
2023-04-27T08:48:28.405Z,10.9
2023-04-27T08:52:30.826Z,11.4
2023-04-27T08:56:33.097Z,12.3
2023-04-27T08:58:34.236Z,12.5
2023-04-27T09:00:38.554Z,12.5
2023-04-27T09:02:39.757Z,12.7
2023-04-27T09:04:40.891Z,13.5
2023-04-27T09:06:41.938Z,13.7
2023-04-27T09:08:43.079Z,12.6
2023-04-27T09:12:45.308Z,11.7
2023-04-27T09:14:49.619Z,11.9
2023-04-27T09:16:50.774Z,11.9
2023-04-27T09:18:51.744Z,12.1
2023-04-27T09:19:53.897Z,11.8
2023-04-27T09:21:55.033Z,11.9
2023-04-27T09:23:56.152Z,12.3
2023-04-27T09:25:57.260Z,12.2
2023-04-27T09:28:01.612Z,12.6
2023-04-27T09:30:02.698Z,12.4
2023-04-27T09:32:03.931Z,12.9
2023-04-27T09:34:04.919Z,12.9
2023-04-27T09:36:06.040Z,12.8
2023-04-27T09:38:07.128Z,12.7
2023-04-27T09:42:12.606Z,12.2
2023-04-27T09:44:13.662Z,12.1
2023-04-27T09:46:14.843Z,12.6
2023-04-27T09:54:19.244Z,12.8
2023-04-27T09:56:23.533Z,12.7
2023-04-27T09:58:24.662Z,12.6
2023-04-27T10:02:26.961Z,12.5
2023-04-27T10:08:30.212Z,12.4
2023-04-27T10:17:40.020Z,13.3
2023-04-27T10:19:41.107Z,13.4
2023-04-27T10:21:42.214Z,13
2023-04-27T10:23:46.517Z,13
2023-04-27T10:25:47.628Z,13.1
2023-04-27T10:33:52.111Z,13.2
2023-04-27T10:35:53.216Z,14.1
2023-04-27T10:37:57.507Z,13.1
2023-04-27T10:39:58.636Z,13
2023-04-27T10:41:59.753Z,13.4
2023-04-27T10:44:00.912Z,13.4
2023-04-27T10:46:02.016Z,13.3
2023-04-27T10:48:03.184Z,13.5
2023-04-27T10:50:04.239Z,13.2
2023-04-27T10:54:09.627Z,13.5
2023-04-27T10:56:10.715Z,13.9
2023-04-27T10:58:11.866Z,13.9
2023-04-27T11:00:13.359Z,14.3
2023-04-27T11:02:14.124Z,15
2023-04-27T11:04:15.465Z,15.4
2023-04-27T11:06:19.468Z,15.2
2023-04-27T11:10:21.703Z,14.8
2023-04-27T11:12:49.690Z,16.3
2023-04-27T11:16:51.936Z,16.9
2023-04-27T11:18:57.926Z,15.8
2023-04-27T11:27:00.702Z,16.9
2023-04-27T11:29:01.802Z,16.9
2023-04-27T11:35:08.288Z,16.5
2023-04-27T11:41:13.093Z,16.8
2023-04-27T11:51:21.790Z,17.3
2023-04-27T12:08:35.903Z,13.7
2023-04-27T12:12:38.173Z,13.5
2023-04-27T12:14:42.401Z,13.6
2023-04-27T12:16:43.572Z,14
2023-04-27T12:18:44.636Z,14.4
2023-04-27T12:20:45.740Z,14.2
2023-04-27T12:22:46.868Z,14.1
2023-04-27T12:24:47.960Z,14.1
2023-04-27T12:26:49.161Z,13.6
2023-04-27T12:28:53.384Z,13.5
2023-04-27T12:30:54.549Z,13.4
2023-04-27T12:34:56.751Z,14.1
2023-04-27T12:43:04.388Z,13.8
2023-04-27T12:45:05.485Z,13.7
2023-04-27T12:47:06.609Z,14.3
2023-04-27T12:49:07.724Z,14.5
2023-04-27T12:51:08.832Z,14.4
2023-04-27T12:53:09.938Z,14.5
2023-04-27T13:02:19.724Z,14.5
2023-04-27T13:04:21.837Z,14.4
2023-04-27T13:06:21.941Z,14.3
2023-04-27T13:08:23.060Z,14.7
2023-04-27T13:10:27.340Z,14.1
2023-04-27T13:16:30.703Z,13.7
2023-04-27T13:22:34.023Z,13.9
2023-04-27T13:24:38.280Z,13.6
2023-04-27T13:36:45.007Z,13.6
2023-04-27T13:38:49.295Z,14
2023-04-27T13:44:52.631Z,14.3
2023-04-27T13:50:56.021Z,14.6
2023-04-27T13:55:01.400Z,14.9
2023-04-27T13:58:04.665Z,13.9
2023-04-27T14:00:05.773Z,13.9
2023-04-27T14:04:08.243Z,14
2023-04-27T14:06:12.293Z,14.2
2023-04-27T14:10:14.554Z,14
2023-04-27T14:24:25.566Z,14.1
2023-04-27T14:26:26.674Z,13.9
2023-04-27T14:28:27.803Z,14
2023-04-27T14:30:28.926Z,14
2023-04-27T14:32:30.098Z,14.1
2023-04-27T14:34:34.364Z,14.1
2023-04-27T14:36:35.476Z,14.1
2023-04-27T14:38:36.609Z,14.1
2023-04-27T14:42:38.840Z,14.1
2023-04-27T14:44:39.979Z,14.3
2023-04-27T14:46:41.134Z,14.6
2023-04-27T14:48:45.412Z,14.5
2023-04-27T14:50:46.486Z,14.4
2023-04-27T14:52:47.616Z,14.1
2023-04-27T14:55:15.646Z,14
2023-04-27T14:57:16.747Z,14
2023-04-27T14:59:17.866Z,13.8
2023-04-27T15:01:22.272Z,13.8
2023-04-27T15:03:23.405Z,14
2023-04-27T15:05:24.364Z,14.1
2023-04-27T15:07:25.523Z,14.1
2023-04-27T15:11:27.755Z,14.3
2023-04-27T15:13:28.854Z,14.3
2023-04-27T15:17:34.330Z,14
2023-04-27T15:19:35.399Z,14
2023-04-27T15:21:36.523Z,14.1
2023-04-27T15:23:37.618Z,14.4
2023-04-27T15:25:38.743Z,14.2
2023-04-27T15:27:39.862Z,14.1
2023-04-27T15:33:46.412Z,14.1
2023-04-27T15:37:48.644Z,14.1
2023-04-27T15:39:49.737Z,14
2023-04-27T15:43:55.184Z,14
2023-04-27T15:45:56.286Z,14
2023-04-27T15:53:01.786Z,14.4
2023-04-27T16:05:11.683Z,13.8
2023-04-27T16:07:12.812Z,13.7
2023-04-27T16:09:14.199Z,13.6
2023-04-27T16:11:18.184Z,13.5
2023-04-27T16:13:19.312Z,13.6
2023-04-27T16:15:20.454Z,13.7
2023-04-27T16:17:21.563Z,13.9
2023-04-27T16:19:22.796Z,13.8
2023-04-27T16:21:23.831Z,13.9
2023-04-27T16:23:24.934Z,13.9
2023-04-27T16:25:29.257Z,14
2023-04-27T16:27:30.391Z,13.8
2023-04-27T16:29:31.498Z,13.8
2023-04-27T16:37:36.028Z,13.5
2023-04-27T16:39:40.336Z,13.6
2023-04-27T16:41:41.466Z,13.6
2023-04-27T16:44:44.720Z,13.5
2023-04-27T16:46:45.848Z,13.5
2023-04-27T16:48:46.985Z,13.4
2023-04-27T16:50:48.105Z,13.3
2023-04-27T16:52:52.407Z,13.3
2023-04-27T16:54:53.520Z,13.3
2023-04-27T16:56:55.287Z,13.1
2023-04-27T16:58:55.789Z,13.1
2023-04-27T17:00:57.097Z,13.1
2023-04-27T17:04:59.478Z,13.2
2023-04-27T17:07:03.617Z,13.1
2023-04-27T17:09:04.777Z,13.1
2023-04-27T17:37:28.646Z,12.8
2023-04-27T17:40:32.065Z,12.7
2023-04-27T17:42:33.145Z,12.7
2023-04-27T17:44:34.305Z,12.7
2023-04-27T17:46:36.062Z,12.7
2023-04-27T17:52:42.794Z,12.7
2023-04-27T17:54:43.932Z,12.7
2023-04-27T17:56:45.179Z,12.5
2023-04-27T17:58:46.460Z,12.4
2023-04-27T18:00:47.694Z,12.4
2023-04-27T18:02:52.312Z,12.3
2023-04-27T18:12:58.336Z,12.2
2023-04-27T18:15:01.187Z,12.2
2023-04-27T18:19:05.281Z,12.1
2023-04-27T18:21:06.537Z,12.1
2023-04-27T18:23:07.773Z,12.1
2023-04-27T18:25:09.070Z,12
2023-04-27T18:45:55.022Z,11.7
2023-04-27T18:47:56.254Z,11.6
2023-04-27T19:04:09.666Z,11.5
2023-04-27T19:08:11.977Z,11.4
2023-04-27T19:10:13.162Z,11.4
2023-04-27T19:18:21.423Z,11.3
2023-04-27T19:20:22.563Z,11.3
2023-04-27T19:22:23.809Z,11.3
2023-04-27T19:24:25.061Z,11.3
2023-04-27T19:26:29.768Z,11.2
2023-04-27T19:31:34.290Z,11.2
2023-04-27T19:41:43.733Z,11.2
2023-04-27T19:45:46.214Z,11.1
2023-04-27T19:47:47.483Z,11
2023-04-27T19:49:48.665Z,11
2023-04-27T19:55:55.637Z,11
2023-04-27T19:57:56.891Z,10.9
2023-04-27T20:01:59.411Z,10.9
2023-04-27T20:04:00.845Z,10.9
2023-04-27T20:14:10.069Z,10.7
2023-04-27T20:16:11.294Z,10.8
2023-04-27T20:18:12.979Z,10.7
2023-04-27T20:20:13.771Z,10.7
2023-04-27T20:24:19.549Z,10.7
2023-04-27T20:26:20.756Z,10.7
2023-04-27T20:27:23.052Z,10.7
2023-04-27T20:29:24.270Z,10.7
2023-04-27T20:35:31.304Z,10.6
2023-04-27T20:37:32.628Z,10.6
2023-04-27T20:39:33.749Z,10.6
2023-04-27T20:43:36.191Z,10.5
2023-04-27T20:47:38.692Z,10.5
2023-04-27T20:49:43.182Z,10.5
2023-04-27T20:55:46.879Z,10.4
2023-04-27T20:57:48.110Z,10.4
2023-04-27T20:59:49.334Z,10.4
2023-04-27T21:01:50.578Z,10.3
2023-04-27T21:03:55.170Z,10.3
2023-04-27T21:05:56.347Z,10.3
2023-04-27T21:07:57.534Z,10.3
2023-04-27T21:09:58.750Z,10.3
2023-04-27T21:14:01.241Z,10.3
2023-04-27T21:16:02.478Z,10.3
2023-04-27T21:23:11.701Z,10.2
2023-04-27T21:25:12.906Z,10.2
2023-04-27T21:27:14.157Z,10.2
2023-04-27T21:29:15.367Z,10.2
2023-04-27T21:31:20.733Z,10.1
2023-04-27T21:33:21.137Z,10.1
2023-04-27T21:35:22.332Z,10.1
2023-04-27T21:51:35.489Z,9.9
2023-04-27T22:01:45.018Z,9.9
2023-04-27T22:03:46.325Z,9.8
2023-04-27T22:05:47.364Z,9.8
2023-04-27T22:20:26.342Z,9.7
2023-04-27T22:22:27.544Z,9.7
2023-04-27T22:26:33.299Z,9.6
2023-04-27T22:28:34.510Z,9.6
2023-04-27T22:32:36.999Z,9.6
2023-04-27T22:36:39.478Z,9.6
2023-04-27T22:38:40.683Z,9.5
2023-04-27T22:42:46.396Z,9.5
2023-04-27T22:44:47.610Z,9.5
2023-04-27T22:48:50.101Z,9.5
2023-04-27T22:50:51.291Z,9.5
2023-04-27T22:54:57.047Z,9.4
2023-04-27T23:05:03.166Z,9.4
2023-04-27T23:07:04.407Z,9.4
2023-04-27T23:09:08.902Z,9.4
2023-04-27T23:11:10.118Z,9.4
2023-04-27T23:13:11.375Z,9.4
2023-04-27T23:14:13.684Z,9.4
2023-04-27T23:18:17.658Z,9.4
2023-04-27T23:22:23.280Z,9.4
2023-04-27T23:26:25.735Z,9.3
2023-04-27T23:28:26.968Z,9.3
2023-04-27T23:30:28.212Z,9.3
2023-04-27T23:32:29.489Z,9.2
2023-04-27T23:34:30.671Z,9.3
2023-04-27T23:36:35.147Z,9.3
2023-04-27T23:38:36.379Z,9.2
2023-04-27T23:42:38.840Z,9.2
2023-04-27T23:44:40.059Z,9.2
2023-04-27T23:46:41.351Z,9.2
2023-04-27T23:48:42.525Z,9.2
2023-04-27T23:50:47.018Z,9.2
2023-04-27T23:52:48.213Z,9.1
2023-04-27T23:54:49.449Z,9.1
2023-04-27T23:56:50.685Z,9.1
2023-04-27T23:58:51.901Z,9.1
